sensor_id;sensor_type;location;lat;lon;timestamp;P1;durP1;ratioP1;P2;durP2;ratioP2
16099;SDS011;8154;50.830;12.082;2023-03-14T00:21:23;0.60;;;0.60;;
16099;SDS011;8154;50.830;12.082;2023-03-14T00:23:49;0.80;;;0.80;;
16099;SDS011;8154;50.830;12.082;2023-03-14T00:26:16;0.80;;;0.80;;
16099;SDS011;8154;50.830;12.082;2023-03-14T00:28:44;0.70;;;0.70;;
16099;SDS011;8154;50.830;12.082;2023-03-14T00:31:11;0.73;;;0.73;;
16099;SDS011;8154;50.830;12.082;2023-03-14T00:33:40;0.80;;;0.80;;
16099;SDS011;8154;50.830;12.082;2023-03-14T00:36:07;0.68;;;0.68;;
16099;SDS011;8154;50.830;12.082;2023-03-14T00:38:37;0.70;;;0.70;;
16099;SDS011;8154;50.830;12.082;2023-03-14T00:41:05;0.57;;;0.57;;
16099;SDS011;8154;50.830;12.082;2023-03-14T00:43:32;0.80;;;0.80;;
16099;SDS011;8154;50.830;12.082;2023-03-14T00:45:58;0.80;;;0.80;;
16099;SDS011;8154;50.830;12.082;2023-03-14T00:48:24;0.60;;;0.60;;
16099;SDS011;8154;50.830;12.082;2023-03-14T00:50:50;0.60;;;0.60;;
16099;SDS011;8154;50.830;12.082;2023-03-14T00:53:16;0.75;;;0.75;;
16099;SDS011;8154;50.830;12.082;2023-03-14T00:55:43;0.60;;;0.60;;
16099;SDS011;8154;50.830;12.082;2023-03-14T00:58:10;0.70;;;0.70;;
16099;SDS011;8154;50.830;12.082;2023-03-14T01:00:37;0.70;;;0.70;;
16099;SDS011;8154;50.830;12.082;2023-03-14T01:03:03;0.80;;;0.80;;
16099;SDS011;8154;50.830;12.082;2023-03-14T01:05:30;0.70;;;0.70;;
16099;SDS011;8154;50.830;12.082;2023-03-14T01:07:57;0.80;;;0.80;;
16099;SDS011;8154;50.830;12.082;2023-03-14T01:10:23;0.63;;;0.63;;
16099;SDS011;8154;50.830;12.082;2023-03-14T01:12:49;0.70;;;0.70;;
16099;SDS011;8154;50.830;12.082;2023-03-14T01:15:15;0.70;;;0.70;;
16099;SDS011;8154;50.830;12.082;2023-03-14T01:17:41;0.70;;;0.70;;
16099;SDS011;8154;50.830;12.082;2023-03-14T01:20:08;0.80;;;0.80;;
16099;SDS011;8154;50.830;12.082;2023-03-14T01:22:37;0.70;;;0.70;;
16099;SDS011;8154;50.830;12.082;2023-03-14T01:25:06;0.70;;;0.70;;
16099;SDS011;8154;50.830;12.082;2023-03-14T01:27:33;0.70;;;0.70;;
16099;SDS011;8154;50.830;12.082;2023-03-14T01:30:00;0.60;;;0.60;;
16099;SDS011;8154;50.830;12.082;2023-03-14T01:32:28;0.60;;;0.60;;
16099;SDS011;8154;50.830;12.082;2023-03-14T01:34:54;0.70;;;0.70;;
16099;SDS011;8154;50.830;12.082;2023-03-14T01:37:21;0.70;;;0.70;;
16099;SDS011;8154;50.830;12.082;2023-03-14T01:39:47;0.80;;;0.80;;
16099;SDS011;8154;50.830;12.082;2023-03-14T01:42:13;0.60;;;0.60;;
16099;SDS011;8154;50.830;12.082;2023-03-14T01:47:17;0.70;;;0.70;;
16099;SDS011;8154;50.830;12.082;2023-03-14T01:49:44;0.70;;;0.70;;
16099;SDS011;8154;50.830;12.082;2023-03-14T01:52:14;0.60;;;0.60;;
16099;SDS011;8154;50.830;12.082;2023-03-14T01:54:54;0.60;;;0.60;;
16099;SDS011;8154;50.830;12.082;2023-03-14T01:57:25;0.80;;;0.80;;
16099;SDS011;8154;50.830;12.082;2023-03-14T02:00:15;0.60;;;0.60;;
16099;SDS011;8154;50.830;12.082;2023-03-14T02:02:46;0.63;;;0.63;;
16099;SDS011;8154;50.830;12.082;2023-03-14T02:05:21;0.70;;;0.70;;
16099;SDS011;8154;50.830;12.082;2023-03-14T02:07:52;0.60;;;0.60;;
16099;SDS011;8154;50.830;12.082;2023-03-14T02:10:21;0.60;;;0.60;;
16099;SDS011;8154;50.830;12.082;2023-03-14T02:12:50;0.73;;;0.73;;
16099;SDS011;8154;50.830;12.082;2023-03-14T02:15:18;0.60;;;0.60;;
16099;SDS011;8154;50.830;12.082;2023-03-14T02:17:45;0.80;;;0.80;;
16099;SDS011;8154;50.830;12.082;2023-03-14T02:22:55;0.60;;;0.60;;
16099;SDS011;8154;50.830;12.082;2023-03-14T02:28:15;0.68;;;0.68;;
16099;SDS011;8154;50.830;12.082;2023-03-14T04:32:43;0.40;;;0.40;;
16099;SDS011;8154;50.830;12.082;2023-03-14T04:35:09;0.60;;;0.60;;
16099;SDS011;8154;50.830;12.082;2023-03-14T04:37:35;0.50;;;0.50;;
16099;SDS011;8154;50.830;12.082;2023-03-14T04:40:01;0.55;;;0.55;;
16099;SDS011;8154;50.830;12.082;2023-03-14T04:42:30;0.52;;;0.52;;
16099;SDS011;8154;50.830;12.082;2023-03-14T04:44:56;0.50;;;0.50;;
16099;SDS011;8154;50.830;12.082;2023-03-14T04:47:22;0.60;;;0.60;;
16099;SDS011;8154;50.830;12.082;2023-03-14T04:49:48;0.55;;;0.43;;
16099;SDS011;8154;50.830;12.082;2023-03-14T04:52:14;0.50;;;0.50;;
16099;SDS011;8154;50.830;12.082;2023-03-14T04:54:40;0.60;;;0.60;;
16099;SDS011;8154;50.830;12.082;2023-03-14T04:57:06;0.40;;;0.40;;
16099;SDS011;8154;50.830;12.082;2023-03-14T04:59:32;0.55;;;0.52;;
16099;SDS011;8154;50.830;12.082;2023-03-14T05:01:58;0.60;;;0.60;;
16099;SDS011;8154;50.830;12.082;2023-03-14T05:04:25;0.50;;;0.50;;
16099;SDS011;8154;50.830;12.082;2023-03-14T05:06:51;0.55;;;0.55;;
16099;SDS011;8154;50.830;12.082;2023-03-14T05:09:17;0.50;;;0.50;;
16099;SDS011;8154;50.830;12.082;2023-03-14T05:11:43;0.50;;;0.50;;
16099;SDS011;8154;50.830;12.082;2023-03-14T05:14:10;0.60;;;0.60;;
16099;SDS011;8154;50.830;12.082;2023-03-14T05:16:35;0.60;;;0.60;;
16099;SDS011;8154;50.830;12.082;2023-03-14T05:19:01;0.50;;;0.50;;
16099;SDS011;8154;50.830;12.082;2023-03-14T05:21:27;0.60;;;0.60;;
16099;SDS011;8154;50.830;12.082;2023-03-14T05:23:53;0.60;;;0.60;;
16099;SDS011;8154;50.830;12.082;2023-03-14T05:26:19;0.50;;;0.50;;
16099;SDS011;8154;50.830;12.082;2023-03-14T05:28:45;0.55;;;0.55;;
16099;SDS011;8154;50.830;12.082;2023-03-14T06:32:22;0.55;;;0.55;;
16099;SDS011;8154;50.830;12.082;2023-03-14T06:34:48;1.50;;;0.60;;
16099;SDS011;8154;50.830;12.082;2023-03-14T06:37:14;0.50;;;0.50;;
16099;SDS011;8154;50.830;12.082;2023-03-14T06:39:40;0.50;;;0.50;;
16099;SDS011;8154;50.830;12.082;2023-03-14T06:42:06;0.60;;;0.60;;
16099;SDS011;8154;50.830;12.082;2023-03-14T06:44:33;0.57;;;0.57;;
16099;SDS011;8154;50.830;12.082;2023-03-14T06:46:59;0.57;;;0.57;;
16099;SDS011;8154;50.830;12.082;2023-03-14T06:49:25;0.60;;;0.60;;
16099;SDS011;8154;50.830;12.082;2023-03-14T06:51:53;0.70;;;0.70;;
16099;SDS011;8154;50.830;12.082;2023-03-14T06:54:19;0.60;;;0.50;;
16099;SDS011;8154;50.830;12.082;2023-03-14T06:56:45;0.57;;;0.57;;
16099;SDS011;8154;50.830;12.082;2023-03-14T06:59:11;0.50;;;0.50;;
16099;SDS011;8154;50.830;12.082;2023-03-14T07:01:38;0.50;;;0.50;;
16099;SDS011;8154;50.830;12.082;2023-03-14T07:04:05;0.60;;;0.60;;
16099;SDS011;8154;50.830;12.082;2023-03-14T07:06:33;0.50;;;0.50;;
16099;SDS011;8154;50.830;12.082;2023-03-14T07:08:59;0.60;;;0.60;;
16099;SDS011;8154;50.830;12.082;2023-03-14T07:11:25;0.60;;;0.60;;
16099;SDS011;8154;50.830;12.082;2023-03-14T07:13:51;0.50;;;0.50;;
16099;SDS011;8154;50.830;12.082;2023-03-14T07:16:18;0.57;;;0.57;;
16099;SDS011;8154;50.830;12.082;2023-03-14T07:18:44;1.13;;;0.60;;
16099;SDS011;8154;50.830;12.082;2023-03-14T07:21:11;0.60;;;0.60;;
16099;SDS011;8154;50.830;12.082;2023-03-14T07:23:37;0.60;;;0.60;;
16099;SDS011;8154;50.830;12.082;2023-03-14T07:26:03;0.50;;;0.50;;
16099;SDS011;8154;50.830;12.082;2023-03-14T07:28:30;0.60;;;0.60;;
16099;SDS011;8154;50.830;12.082;2023-03-14T07:30:57;0.60;;;0.60;;
16099;SDS011;8154;50.830;12.082;2023-03-14T07:33:23;0.60;;;0.60;;
16099;SDS011;8154;50.830;12.082;2023-03-14T07:35:50;0.50;;;0.50;;
16099;SDS011;8154;50.830;12.082;2023-03-14T07:38:16;0.50;;;0.50;;
16099;SDS011;8154;50.830;12.082;2023-03-14T07:40:42;0.50;;;0.50;;
16099;SDS011;8154;50.830;12.082;2023-03-14T07:43:08;0.60;;;0.60;;
16099;SDS011;8154;50.830;12.082;2023-03-14T07:45:35;0.47;;;0.47;;
16099;SDS011;8154;50.830;12.082;2023-03-14T07:48:01;0.60;;;0.60;;
16099;SDS011;8154;50.830;12.082;2023-03-14T07:50:27;0.50;;;0.50;;
16099;SDS011;8154;50.830;12.082;2023-03-14T07:52:54;0.50;;;0.50;;
16099;SDS011;8154;50.830;12.082;2023-03-14T07:55:20;0.50;;;0.50;;
16099;SDS011;8154;50.830;12.082;2023-03-14T07:57:48;0.50;;;0.50;;
16099;SDS011;8154;50.830;12.082;2023-03-14T08:00:14;0.50;;;0.50;;
16099;SDS011;8154;50.830;12.082;2023-03-14T08:02:41;0.60;;;0.60;;
16099;SDS011;8154;50.830;12.082;2023-03-14T08:05:08;0.50;;;0.50;;
16099;SDS011;8154;50.830;12.082;2023-03-14T08:07:35;0.60;;;0.60;;
16099;SDS011;8154;50.830;12.082;2023-03-14T08:10:01;0.70;;;0.70;;
16099;SDS011;8154;50.830;12.082;2023-03-14T08:12:28;0.60;;;0.60;;
16099;SDS011;8154;50.830;12.082;2023-03-14T08:14:54;0.60;;;0.60;;
16099;SDS011;8154;50.830;12.082;2023-03-14T08:17:19;0.50;;;0.50;;
16099;SDS011;8154;50.830;12.082;2023-03-14T08:19:46;0.50;;;0.50;;
16099;SDS011;8154;50.830;12.082;2023-03-14T08:22:12;0.40;;;0.40;;
16099;SDS011;8154;50.830;12.082;2023-03-14T08:24:40;0.60;;;0.60;;
16099;SDS011;8154;50.830;12.082;2023-03-14T08:27:07;0.50;;;0.50;;
16099;SDS011;8154;50.830;12.082;2023-03-14T08:29:33;0.60;;;0.60;;
16099;SDS011;8154;50.830;12.082;2023-03-14T08:31:59;0.50;;;0.50;;
16099;SDS011;8154;50.830;12.082;2023-03-14T08:34:26;0.50;;;0.50;;
16099;SDS011;8154;50.830;12.082;2023-03-14T08:36:52;0.50;;;0.50;;
16099;SDS011;8154;50.830;12.082;2023-03-14T08:39:18;0.55;;;0.55;;
16099;SDS011;8154;50.830;12.082;2023-03-14T08:41:43;0.45;;;0.45;;
16099;SDS011;8154;50.830;12.082;2023-03-14T08:44:10;0.40;;;0.40;;
16099;SDS011;8154;50.830;12.082;2023-03-14T08:46:39;0.60;;;0.60;;
16099;SDS011;8154;50.830;12.082;2023-03-14T08:49:05;0.60;;;0.60;;
16099;SDS011;8154;50.830;12.082;2023-03-14T08:51:32;0.60;;;0.60;;
16099;SDS011;8154;50.830;12.082;2023-03-14T08:53:58;0.40;;;0.40;;
16099;SDS011;8154;50.830;12.082;2023-03-14T08:56:24;0.50;;;0.50;;
16099;SDS011;8154;50.830;12.082;2023-03-14T08:58:50;0.50;;;0.50;;
16099;SDS011;8154;50.830;12.082;2023-03-14T09:01:16;0.70;;;0.60;;
16099;SDS011;8154;50.830;12.082;2023-03-14T09:03:42;0.55;;;0.55;;
16099;SDS011;8154;50.830;12.082;2023-03-14T09:06:09;0.50;;;0.50;;
16099;SDS011;8154;50.830;12.082;2023-03-14T09:08:35;0.60;;;0.60;;
16099;SDS011;8154;50.830;12.082;2023-03-14T09:11:02;0.50;;;0.50;;
16099;SDS011;8154;50.830;12.082;2023-03-14T09:13:28;0.40;;;0.40;;
16099;SDS011;8154;50.830;12.082;2023-03-14T09:15:55;0.50;;;0.50;;
16099;SDS011;8154;50.830;12.082;2023-03-14T09:18:21;0.60;;;0.60;;
16099;SDS011;8154;50.830;12.082;2023-03-14T09:20:48;0.52;;;0.52;;
16099;SDS011;8154;50.830;12.082;2023-03-14T09:23:15;0.60;;;0.60;;
16099;SDS011;8154;50.830;12.082;2023-03-14T09:25:41;0.50;;;0.50;;
16099;SDS011;8154;50.830;12.082;2023-03-14T09:28:07;0.55;;;0.55;;
16099;SDS011;8154;50.830;12.082;2023-03-14T09:30:34;0.50;;;0.50;;
16099;SDS011;8154;50.830;12.082;2023-03-14T09:33:00;0.50;;;0.50;;
16099;SDS011;8154;50.830;12.082;2023-03-14T09:35:27;0.50;;;0.50;;
16099;SDS011;8154;50.830;12.082;2023-03-14T09:37:53;0.50;;;0.50;;
16099;SDS011;8154;50.830;12.082;2023-03-14T09:40:19;0.60;;;0.60;;
16099;SDS011;8154;50.830;12.082;2023-03-14T09:42:50;0.40;;;0.40;;
16099;SDS011;8154;50.830;12.082;2023-03-14T09:45:21;0.45;;;0.45;;
16099;SDS011;8154;50.830;12.082;2023-03-14T09:47:52;0.52;;;0.52;;
16099;SDS011;8154;50.830;12.082;2023-03-14T09:50:20;0.52;;;0.52;;
16099;SDS011;8154;50.830;12.082;2023-03-14T09:52:48;0.50;;;0.50;;
16099;SDS011;8154;50.830;12.082;2023-03-14T09:55:21;0.47;;;0.47;;
16099;SDS011;8154;50.830;12.082;2023-03-14T09:57:49;0.50;;;0.50;;
16099;SDS011;8154;50.830;12.082;2023-03-14T10:00:21;0.50;;;0.50;;
16099;SDS011;8154;50.830;12.082;2023-03-14T10:02:59;0.50;;;0.50;;
16099;SDS011;8154;50.830;12.082;2023-03-14T10:05:40;0.47;;;0.47;;
16099;SDS011;8154;50.830;12.082;2023-03-14T10:08:10;0.50;;;0.50;;
16099;SDS011;8154;50.830;12.082;2023-03-14T10:10:37;0.60;;;0.60;;
16099;SDS011;8154;50.830;12.082;2023-03-14T10:13:17;0.50;;;0.50;;
16099;SDS011;8154;50.830;12.082;2023-03-14T10:18:34;0.55;;;0.55;;
16099;SDS011;8154;50.830;12.082;2023-03-14T10:21:07;0.50;;;0.50;;
16099;SDS011;8154;50.830;12.082;2023-03-14T10:23:46;0.60;;;0.60;;
16099;SDS011;8154;50.830;12.082;2023-03-14T10:26:16;0.50;;;0.50;;
16099;SDS011;8154;50.830;12.082;2023-03-14T10:28:47;0.45;;;0.45;;
16099;SDS011;8154;50.830;12.082;2023-03-14T10:31:17;0.50;;;0.50;;
16099;SDS011;8154;50.830;12.082;2023-03-14T10:33:56;0.50;;;0.50;;
16099;SDS011;8154;50.830;12.082;2023-03-14T10:36:31;0.45;;;0.45;;
16099;SDS011;8154;50.830;12.082;2023-03-14T10:41:48;0.50;;;0.50;;
16099;SDS011;8154;50.830;12.082;2023-03-14T10:44:20;0.40;;;0.40;;
16099;SDS011;8154;50.830;12.082;2023-03-14T10:47:01;0.47;;;0.47;;
16099;SDS011;8154;50.830;12.082;2023-03-14T10:49:31;0.40;;;0.40;;
16099;SDS011;8154;50.830;12.082;2023-03-14T10:52:12;0.60;;;0.60;;
16099;SDS011;8154;50.830;12.082;2023-03-14T10:54:59;0.50;;;0.50;;
16099;SDS011;8154;50.830;12.082;2023-03-14T10:57:30;0.40;;;0.40;;
16099;SDS011;8154;50.830;12.082;2023-03-14T10:59:56;0.57;;;0.57;;
16099;SDS011;8154;50.830;12.082;2023-03-14T11:02:34;0.40;;;0.40;;
16099;SDS011;8154;50.830;12.082;2023-03-14T11:05:25;0.50;;;0.50;;
16099;SDS011;8154;50.830;12.082;2023-03-14T11:08:01;0.50;;;0.50;;
16099;SDS011;8154;50.830;12.082;2023-03-14T11:10:33;0.47;;;0.47;;
16099;SDS011;8154;50.830;12.082;2023-03-14T11:13:04;0.50;;;0.50;;
16099;SDS011;8154;50.830;12.082;2023-03-14T11:15:41;0.50;;;0.50;;
16099;SDS011;8154;50.830;12.082;2023-03-14T11:18:30;0.40;;;0.40;;
16099;SDS011;8154;50.830;12.082;2023-03-14T11:21:02;0.40;;;0.40;;
16099;SDS011;8154;50.830;12.082;2023-03-14T11:26:27;0.40;;;0.40;;
16099;SDS011;8154;50.830;12.082;2023-03-14T11:28:58;0.50;;;0.50;;
16099;SDS011;8154;50.830;12.082;2023-03-14T11:31:38;0.47;;;0.47;;
16099;SDS011;8154;50.830;12.082;2023-03-14T11:39:15;0.52;;;0.52;;
16099;SDS011;8154;50.830;12.082;2023-03-14T11:41:44;0.32;;;0.32;;
16099;SDS011;8154;50.830;12.082;2023-03-14T11:46:52;0.50;;;0.50;;
16099;SDS011;8154;50.830;12.082;2023-03-14T11:51:59;1.10;;;1.10;;
16099;SDS011;8154;50.830;12.082;2023-03-14T11:54:39;1.40;;;1.30;;
16099;SDS011;8154;50.830;12.082;2023-03-14T11:57:21;2.05;;;1.95;;
16099;SDS011;8154;50.830;12.082;2023-03-14T12:05:37;2.40;;;2.20;;
16099;SDS011;8154;50.830;12.082;2023-03-14T12:13:49;2.70;;;2.50;;
16099;SDS011;8154;50.830;12.082;2023-03-14T12:18:49;2.90;;;2.70;;
16099;SDS011;8154;50.830;12.082;2023-03-14T12:21:16;2.97;;;2.78;;
16099;SDS011;8154;50.830;12.082;2023-03-14T12:23:44;3.00;;;2.80;;
16099;SDS011;8154;50.830;12.082;2023-03-14T12:26:20;2.90;;;2.70;;
16099;SDS011;8154;50.830;12.082;2023-03-14T12:28:52;2.72;;;2.53;;
16099;SDS011;8154;50.830;12.082;2023-03-14T12:46:59;2.90;;;2.70;;
16099;SDS011;8154;50.830;12.082;2023-03-14T12:49:29;3.08;;;2.88;;
16099;SDS011;8154;50.830;12.082;2023-03-14T12:52:01;3.03;;;2.83;;
16099;SDS011;8154;50.830;12.082;2023-03-14T12:58:00;3.03;;;2.83;;
16099;SDS011;8154;50.830;12.082;2023-03-14T13:00:32;3.35;;;3.15;;
16099;SDS011;8154;50.830;12.082;2023-03-14T13:03:13;3.13;;;2.92;;
16099;SDS011;8154;50.830;12.082;2023-03-14T13:06:00;3.10;;;2.90;;
16099;SDS011;8154;50.830;12.082;2023-03-14T13:08:39;3.22;;;3.03;;
16099;SDS011;8154;50.830;12.082;2023-03-14T13:11:16;3.35;;;3.15;;
16099;SDS011;8154;50.830;12.082;2023-03-14T13:13:49;3.25;;;3.05;;
16099;SDS011;8154;50.830;12.082;2023-03-14T13:16:23;3.40;;;3.20;;
16099;SDS011;8154;50.830;12.082;2023-03-14T13:18:50;3.30;;;3.03;;
16099;SDS011;8154;50.830;12.082;2023-03-14T13:21:25;3.50;;;3.20;;
16099;SDS011;8154;50.830;12.082;2023-03-14T13:26:21;3.30;;;3.10;;
16099;SDS011;8154;50.830;12.082;2023-03-14T13:28:53;3.22;;;3.03;;
16099;SDS011;8154;50.830;12.082;2023-03-14T13:31:22;3.22;;;3.03;;
16099;SDS011;8154;50.830;12.082;2023-03-14T13:33:56;3.20;;;3.00;;
16099;SDS011;8154;50.830;12.082;2023-03-14T13:36:27;3.22;;;3.03;;
16099;SDS011;8154;50.830;12.082;2023-03-14T13:39:00;3.00;;;2.80;;
16099;SDS011;8154;50.830;12.082;2023-03-14T13:41:30;3.22;;;3.03;;
16099;SDS011;8154;50.830;12.082;2023-03-14T13:44:03;3.10;;;2.90;;
16099;SDS011;8154;50.830;12.082;2023-03-14T13:46:33;3.35;;;3.13;;
16099;SDS011;8154;50.830;12.082;2023-03-14T13:49:03;3.42;;;3.13;;
16099;SDS011;8154;50.830;12.082;2023-03-14T13:51:31;3.40;;;3.10;;
16099;SDS011;8154;50.830;12.082;2023-03-14T13:54:01;3.03;;;2.83;;
16099;SDS011;8154;50.830;12.082;2023-03-14T13:56:30;3.15;;;2.95;;
16099;SDS011;8154;50.830;12.082;2023-03-14T13:58:58;3.30;;;3.10;;
16099;SDS011;8154;50.830;12.082;2023-03-14T14:04:14;3.20;;;3.00;;
16099;SDS011;8154;50.830;12.082;2023-03-14T14:07:00;3.03;;;2.83;;
16099;SDS011;8154;50.830;12.082;2023-03-14T14:09:36;2.80;;;2.60;;
16099;SDS011;8154;50.830;12.082;2023-03-14T14:15:39;3.10;;;2.90;;
16099;SDS011;8154;50.830;12.082;2023-03-14T14:18:06;3.00;;;2.80;;
16099;SDS011;8154;50.830;12.082;2023-03-14T14:20:42;3.30;;;3.10;;
16099;SDS011;8154;50.830;12.082;2023-03-14T14:23:14;3.20;;;3.00;;
16099;SDS011;8154;50.830;12.082;2023-03-14T14:25:51;3.35;;;3.13;;
16099;SDS011;8154;50.830;12.082;2023-03-14T14:28:26;3.70;;;3.40;;
16099;SDS011;8154;50.830;12.082;2023-03-14T15:35:02;4.13;;;3.83;;
16099;SDS011;8154;50.830;12.082;2023-03-14T15:37:28;4.20;;;3.90;;
16099;SDS011;8154;50.830;12.082;2023-03-14T15:39:55;4.00;;;3.70;;
16099;SDS011;8154;50.830;12.082;2023-03-14T15:42:23;4.25;;;3.95;;
16099;SDS011;8154;50.830;12.082;2023-03-14T15:44:49;4.00;;;3.70;;
16099;SDS011;8154;50.830;12.082;2023-03-14T15:47:15;4.03;;;3.72;;
16099;SDS011;8154;50.830;12.082;2023-03-14T15:49:42;3.85;;;3.55;;
16099;SDS011;8154;50.830;12.082;2023-03-14T15:52:08;4.05;;;3.75;;
16099;SDS011;8154;50.830;12.082;2023-03-14T15:54:34;3.90;;;3.60;;
16099;SDS011;8154;50.830;12.082;2023-03-14T15:57:00;4.47;;;4.10;;
16099;SDS011;8154;50.830;12.082;2023-03-14T15:59:26;3.83;;;3.53;;
16099;SDS011;8154;50.830;12.082;2023-03-14T16:01:53;4.28;;;3.97;;
16099;SDS011;8154;50.830;12.082;2023-03-14T16:04:19;3.97;;;3.67;;
16099;SDS011;8154;50.830;12.082;2023-03-14T16:06:45;4.00;;;3.70;;
16099;SDS011;8154;50.830;12.082;2023-03-14T16:09:11;4.07;;;3.78;;
16099;SDS011;8154;50.830;12.082;2023-03-14T16:11:40;3.95;;;3.65;;
16099;SDS011;8154;50.830;12.082;2023-03-14T16:14:06;4.18;;;3.88;;
16099;SDS011;8154;50.830;12.082;2023-03-14T16:16:32;3.97;;;3.67;;
16099;SDS011;8154;50.830;12.082;2023-03-14T16:18:58;4.18;;;3.88;;
16099;SDS011;8154;50.830;12.082;2023-03-14T16:21:24;3.90;;;3.60;;
16099;SDS011;8154;50.830;12.082;2023-03-14T16:23:50;4.20;;;3.90;;
16099;SDS011;8154;50.830;12.082;2023-03-14T16:26:18;3.90;;;3.60;;
16099;SDS011;8154;50.830;12.082;2023-03-14T16:28:45;3.85;;;3.55;;
16099;SDS011;8154;50.830;12.082;2023-03-14T16:31:13;4.03;;;3.72;;
16099;SDS011;8154;50.830;12.082;2023-03-14T16:33:45;4.00;;;3.70;;
16099;SDS011;8154;50.830;12.082;2023-03-14T16:36:12;4.25;;;3.92;;
16099;SDS011;8154;50.830;12.082;2023-03-14T16:38:40;3.92;;;3.63;;
16099;SDS011;8154;50.830;12.082;2023-03-14T16:41:10;4.00;;;3.70;;
16099;SDS011;8154;50.830;12.082;2023-03-14T16:43:41;4.10;;;3.80;;
16099;SDS011;8154;50.830;12.082;2023-03-14T16:46:16;3.90;;;3.60;;
16099;SDS011;8154;50.830;12.082;2023-03-14T16:48:43;3.83;;;3.53;;
16099;SDS011;8154;50.830;12.082;2023-03-14T16:51:09;4.03;;;3.72;;
16099;SDS011;8154;50.830;12.082;2023-03-14T16:53:35;4.03;;;3.72;;
16099;SDS011;8154;50.830;12.082;2023-03-14T16:56:02;3.80;;;3.50;;
16099;SDS011;8154;50.830;12.082;2023-03-14T16:58:28;4.00;;;3.70;;
16099;SDS011;8154;50.830;12.082;2023-03-14T17:00:56;4.00;;;3.70;;
16099;SDS011;8154;50.830;12.082;2023-03-14T17:03:22;3.80;;;3.50;;
16099;SDS011;8154;50.830;12.082;2023-03-14T17:05:50;3.90;;;3.60;;
16099;SDS011;8154;50.830;12.082;2023-03-14T17:08:18;3.45;;;3.25;;
16099;SDS011;8154;50.830;12.082;2023-03-14T17:10:45;3.80;;;3.50;;
16099;SDS011;8154;50.830;12.082;2023-03-14T17:13:11;3.80;;;3.50;;
16099;SDS011;8154;50.830;12.082;2023-03-14T17:15:38;3.78;;;3.47;;
16099;SDS011;8154;50.830;12.082;2023-03-14T17:18:09;3.78;;;3.47;;
16099;SDS011;8154;50.830;12.082;2023-03-14T17:20:35;3.80;;;3.50;;
16099;SDS011;8154;50.830;12.082;2023-03-14T17:23:02;4.00;;;3.70;;
16099;SDS011;8154;50.830;12.082;2023-03-14T17:25:28;3.78;;;3.47;;
16099;SDS011;8154;50.830;12.082;2023-03-14T17:27:54;3.70;;;3.40;;
16099;SDS011;8154;50.830;12.082;2023-03-14T17:30:20;3.83;;;3.53;;
16099;SDS011;8154;50.830;12.082;2023-03-14T17:32:46;3.30;;;3.10;;
16099;SDS011;8154;50.830;12.082;2023-03-14T17:35:13;3.60;;;3.30;;
16099;SDS011;8154;50.830;12.082;2023-03-14T17:37:39;3.90;;;3.60;;
16099;SDS011;8154;50.830;12.082;2023-03-14T17:40:05;3.72;;;3.42;;
16099;SDS011;8154;50.830;12.082;2023-03-14T17:42:32;3.75;;;3.45;;
16099;SDS011;8154;50.830;12.082;2023-03-14T17:44:59;4.00;;;3.70;;
16099;SDS011;8154;50.830;12.082;2023-03-14T17:47:25;3.67;;;3.38;;
16099;SDS011;8154;50.830;12.082;2023-03-14T17:49:51;3.90;;;3.60;;
16099;SDS011;8154;50.830;12.082;2023-03-14T17:52:17;3.60;;;3.30;;
16099;SDS011;8154;50.830;12.082;2023-03-14T17:54:43;4.07;;;3.78;;
16099;SDS011;8154;50.830;12.082;2023-03-14T17:57:10;3.63;;;3.33;;
16099;SDS011;8154;50.830;12.082;2023-03-14T17:59:36;3.78;;;3.40;;
16099;SDS011;8154;50.830;12.082;2023-03-14T18:02:03;3.30;;;3.10;;
16099;SDS011;8154;50.830;12.082;2023-03-14T18:04:31;3.53;;;3.22;;
16099;SDS011;8154;50.830;12.082;2023-03-14T18:06:57;3.50;;;3.20;;
16099;SDS011;8154;50.830;12.082;2023-03-14T18:09:24;3.40;;;3.20;;
16099;SDS011;8154;50.830;12.082;2023-03-14T18:11:50;3.70;;;3.40;;
16099;SDS011;8154;50.830;12.082;2023-03-14T18:14:16;3.90;;;3.60;;
16099;SDS011;8154;50.830;12.082;2023-03-14T18:16:43;3.70;;;3.40;;
16099;SDS011;8154;50.830;12.082;2023-03-14T18:19:16;3.70;;;3.40;;
16099;SDS011;8154;50.830;12.082;2023-03-14T18:21:43;3.75;;;3.45;;
16099;SDS011;8154;50.830;12.082;2023-03-14T18:24:10;3.60;;;3.20;;
16099;SDS011;8154;50.830;12.082;2023-03-14T18:26:37;3.50;;;3.20;;
16099;SDS011;8154;50.830;12.082;2023-03-14T18:29:04;3.63;;;3.28;;
16099;SDS011;8154;50.830;12.082;2023-03-14T18:31:31;4.45;;;3.45;;
16099;SDS011;8154;50.830;12.082;2023-03-14T19:35:17;3.20;;;2.90;;
16099;SDS011;8154;50.830;12.082;2023-03-14T19:37:44;3.20;;;2.90;;
16099;SDS011;8154;50.830;12.082;2023-03-14T19:40:11;3.10;;;2.90;;
16099;SDS011;8154;50.830;12.082;2023-03-14T19:42:39;2.90;;;2.70;;
16099;SDS011;8154;50.830;12.082;2023-03-14T19:45:05;2.95;;;2.75;;
16099;SDS011;8154;50.830;12.082;2023-03-14T19:47:33;2.90;;;2.70;;
16099;SDS011;8154;50.830;12.082;2023-03-14T19:49:59;3.15;;;2.90;;
16099;SDS011;8154;50.830;12.082;2023-03-14T19:52:27;3.00;;;2.80;;
16099;SDS011;8154;50.830;12.082;2023-03-14T19:54:54;2.95;;;2.75;;
16099;SDS011;8154;50.830;12.082;2023-03-14T19:57:22;3.05;;;2.85;;
16099;SDS011;8154;50.830;12.082;2023-03-14T19:59:49;3.38;;;3.08;;
16099;SDS011;8154;50.830;12.082;2023-03-14T20:02:16;3.20;;;3.00;;
16099;SDS011;8154;50.830;12.082;2023-03-14T20:04:42;3.05;;;2.85;;
16099;SDS011;8154;50.830;12.082;2023-03-14T20:07:11;2.88;;;2.67;;
16099;SDS011;8154;50.830;12.082;2023-03-14T20:09:39;3.03;;;2.83;;
16099;SDS011;8154;50.830;12.082;2023-03-14T20:12:06;2.70;;;2.50;;
16099;SDS011;8154;50.830;12.082;2023-03-14T20:14:36;2.75;;;2.55;;
16099;SDS011;8154;50.830;12.082;2023-03-14T20:17:02;2.70;;;2.50;;
16099;SDS011;8154;50.830;12.082;2023-03-14T20:19:28;3.10;;;2.80;;
16099;SDS011;8154;50.830;12.082;2023-03-14T20:21:56;2.90;;;2.70;;
16099;SDS011;8154;50.830;12.082;2023-03-14T20:24:23;2.80;;;2.60;;
16099;SDS011;8154;50.830;12.082;2023-03-14T20:26:49;2.78;;;2.58;;
16099;SDS011;8154;50.830;12.082;2023-03-14T20:29:17;2.80;;;2.60;;
16099;SDS011;8154;50.830;12.082;2023-03-14T20:31:44;3.10;;;2.90;;
16099;SDS011;8154;50.830;12.082;2023-03-14T20:34:11;2.70;;;2.50;;
16099;SDS011;8154;50.830;12.082;2023-03-14T20:36:39;2.90;;;2.70;;
16099;SDS011;8154;50.830;12.082;2023-03-14T20:39:07;2.80;;;2.60;;
16099;SDS011;8154;50.830;12.082;2023-03-14T20:41:35;2.70;;;2.50;;
16099;SDS011;8154;50.830;12.082;2023-03-14T20:44:07;2.60;;;2.40;;
16099;SDS011;8154;50.830;12.082;2023-03-14T20:46:36;2.60;;;2.40;;
16099;SDS011;8154;50.830;12.082;2023-03-14T20:49:02;2.65;;;2.45;;
16099;SDS011;8154;50.830;12.082;2023-03-14T20:51:30;2.78;;;2.58;;
16099;SDS011;8154;50.830;12.082;2023-03-14T20:53:57;2.60;;;2.40;;
16099;SDS011;8154;50.830;12.082;2023-03-14T20:56:24;2.70;;;2.50;;
16099;SDS011;8154;50.830;12.082;2023-03-14T20:58:50;2.70;;;2.50;;
16099;SDS011;8154;50.830;12.082;2023-03-14T21:01:16;2.72;;;2.53;;
16099;SDS011;8154;50.830;12.082;2023-03-14T21:03:44;2.70;;;2.50;;
16099;SDS011;8154;50.830;12.082;2023-03-14T21:06:11;2.80;;;2.55;;
16099;SDS011;8154;50.830;12.082;2023-03-14T21:08:38;2.58;;;2.38;;
16099;SDS011;8154;50.830;12.082;2023-03-14T21:11:05;2.85;;;2.65;;
16099;SDS011;8154;50.830;12.082;2023-03-14T21:13:32;2.47;;;2.28;;
16099;SDS011;8154;50.830;12.082;2023-03-14T21:15:59;2.70;;;2.50;;
16099;SDS011;8154;50.830;12.082;2023-03-14T21:18:26;2.60;;;2.40;;
16099;SDS011;8154;50.830;12.082;2023-03-14T21:20:54;2.60;;;2.40;;
16099;SDS011;8154;50.830;12.082;2023-03-14T21:23:22;2.45;;;2.25;;
16099;SDS011;8154;50.830;12.082;2023-03-14T21:25:51;2.50;;;2.30;;
16099;SDS011;8154;50.830;12.082;2023-03-14T21:28:18;2.58;;;2.38;;
16099;SDS011;8154;50.830;12.082;2023-03-14T21:30:45;2.58;;;2.38;;
16099;SDS011;8154;50.830;12.082;2023-03-14T21:33:12;2.40;;;2.30;;